sensor_id;sensor_type;location;lat;lon;timestamp;pressure;altitude;pressure_sealevel;temperature;humidity
38191;BME280;25191;47.510;19.124;2023-03-20T00:09:52;100361.44;;;22.30;48.76
38191;BME280;25191;47.510;19.124;2023-03-20T00:19:54;100360.72;;;22.28;48.65
38191;BME280;25191;47.510;19.124;2023-03-20T00:29:54;100351.84;;;22.29;48.82
38191;BME280;25191;47.510;19.124;2023-03-20T00:39:55;100355.56;;;22.27;48.83
38191;BME280;25191;47.510;19.124;2023-03-20T00:49:56;100354.03;;;22.24;48.75
38191;BME280;25191;47.510;19.124;2023-03-20T01:00:00;100352.34;;;22.23;48.66
38191;BME280;25191;47.510;19.124;2023-03-20T01:10:04;100355.94;;;22.22;49.11
38191;BME280;25191;47.510;19.124;2023-03-20T01:20:13;100356.19;;;22.19;49.07
38191;BME280;25191;47.510;19.124;2023-03-20T01:30:34;100349.94;;;22.20;48.24
38191;BME280;25191;47.510;19.124;2023-03-20T01:50:44;100332.94;;;22.13;48.85
38191;BME280;25191;47.510;19.124;2023-03-20T02:00:51;100323.34;;;22.12;48.74
38191;BME280;25191;47.510;19.124;2023-03-20T02:10:53;100334.03;;;22.10;48.79
38191;BME280;25191;47.510;19.124;2023-03-20T02:21:04;100320.84;;;22.10;48.36
38191;BME280;25191;47.510;19.124;2023-03-20T02:31:27;100314.88;;;22.08;48.69
38191;BME280;25191;47.510;19.124;2023-03-20T02:52:35;100301.69;;;22.08;48.47
38191;BME280;25191;47.510;19.124;2023-03-20T03:02:53;100293.44;;;22.01;48.51
38191;BME280;25191;47.510;19.124;2023-03-20T03:12:59;100303.19;;;22.01;48.65
38191;BME280;25191;47.510;19.124;2023-03-20T03:23:01;100307.72;;;21.99;48.46
38191;BME280;25191;47.510;19.124;2023-03-20T03:43:20;100315.78;;;21.97;48.41
38191;BME280;25191;47.510;19.124;2023-03-20T03:53:28;100318.50;;;21.96;48.26
38191;BME280;25191;47.510;19.124;2023-03-20T04:03:35;100330.00;;;21.95;48.12
38191;BME280;25191;47.510;19.124;2023-03-20T04:13:37;100332.91;;;21.91;48.35
38191;BME280;25191;47.510;19.124;2023-03-20T04:23:37;100330.16;;;21.93;48.23
38191;BME280;25191;47.510;19.124;2023-03-20T04:33:38;100333.06;;;21.90;48.31
38191;BME280;25191;47.510;19.124;2023-03-20T04:43:38;100347.19;;;21.89;48.10
38191;BME280;25191;47.510;19.124;2023-03-20T04:53:39;100340.56;;;21.95;48.50
38191;BME280;25191;47.510;19.124;2023-03-20T05:03:40;100351.38;;;21.91;48.06
38191;BME280;25191;47.510;19.124;2023-03-20T05:13:40;100357.81;;;21.99;49.23
38191;BME280;25191;47.510;19.124;2023-03-20T05:23:40;100363.41;;;22.05;50.12
38191;BME280;25191;47.510;19.124;2023-03-20T05:33:41;100369.28;;;22.09;50.36
38191;BME280;25191;47.510;19.124;2023-03-20T05:43:42;100375.16;;;22.13;49.94
38191;BME280;25191;47.510;19.124;2023-03-20T05:53:42;100372.50;;;21.69;40.30
38191;BME280;25191;47.510;19.124;2023-03-20T06:03:45;100375.22;;;21.90;43.81
38191;BME280;25191;47.510;19.124;2023-03-20T06:13:49;100395.63;;;21.77;44.01
38191;BME280;25191;47.510;19.124;2023-03-20T06:23:53;100402.44;;;21.79;42.87
38191;BME280;25191;47.510;19.124;2023-03-20T06:33:54;100395.47;;;21.89;45.63
38191;BME280;25191;47.510;19.124;2023-03-20T06:43:54;100395.09;;;21.94;46.14
38191;BME280;25191;47.510;19.124;2023-03-20T06:53:56;100410.09;;;21.94;45.46
38191;BME280;25191;47.510;19.124;2023-03-20T07:03:57;100413.91;;;22.01;46.07
38191;BME280;25191;47.510;19.124;2023-03-20T07:13:58;100411.84;;;22.04;46.78
38191;BME280;25191;47.510;19.124;2023-03-20T07:24:00;100414.09;;;22.09;46.87
38191;BME280;25191;47.510;19.124;2023-03-20T07:34:01;100417.34;;;22.13;46.71
38191;BME280;25191;47.510;19.124;2023-03-20T07:44:01;100408.34;;;22.15;46.65
38191;BME280;25191;47.510;19.124;2023-03-20T07:54:02;100411.56;;;22.19;46.78
38191;BME280;25191;47.510;19.124;2023-03-20T08:04:02;100420.19;;;22.21;47.15
38191;BME280;25191;47.510;19.124;2023-03-20T08:14:04;100419.09;;;22.23;46.81
38191;BME280;25191;47.510;19.124;2023-03-20T08:24:04;100420.66;;;22.26;46.89
38191;BME280;25191;47.510;19.124;2023-03-20T08:34:06;100422.09;;;22.30;46.98
38191;BME280;25191;47.510;19.124;2023-03-20T08:44:06;100427.09;;;22.33;46.90
38191;BME280;25191;47.510;19.124;2023-03-20T08:54:07;100438.16;;;22.38;46.67
38191;BME280;25191;47.510;19.124;2023-03-20T09:04:07;100432.63;;;22.42;47.00
38191;BME280;25191;47.510;19.124;2023-03-20T09:14:08;100442.22;;;22.43;47.01
38191;BME280;25191;47.510;19.124;2023-03-20T09:24:09;100444.72;;;22.44;47.27
38191;BME280;25191;47.510;19.124;2023-03-20T09:34:12;100438.22;;;22.48;47.16
38191;BME280;25191;47.510;19.124;2023-03-20T09:44:47;100424.66;;;22.53;47.20
38191;BME280;25191;47.510;19.124;2023-03-20T09:54:54;100432.19;;;22.58;47.20
38191;BME280;25191;47.510;19.124;2023-03-20T10:04:57;100427.63;;;22.60;46.95
38191;BME280;25191;47.510;19.124;2023-03-20T10:15:09;100428.22;;;22.63;47.14
38191;BME280;25191;47.510;19.124;2023-03-20T10:25:31;100422.81;;;22.65;46.83
38191;BME280;25191;47.510;19.124;2023-03-20T10:35:38;100419.78;;;22.69;47.02
38191;BME280;25191;47.510;19.124;2023-03-20T10:45:53;100414.97;;;22.75;46.65
38191;BME280;25191;47.510;19.124;2023-03-20T10:55:59;100407.03;;;22.75;46.67
38191;BME280;25191;47.510;19.124;2023-03-20T11:06:11;100398.16;;;22.76;47.02
38191;BME280;25191;47.510;19.124;2023-03-20T11:16:30;100385.41;;;22.81;47.22
38191;BME280;25191;47.510;19.124;2023-03-20T11:26:36;100374.59;;;22.84;47.00
38191;BME280;25191;47.510;19.124;2023-03-20T11:36:38;100363.19;;;22.83;46.71
38191;BME280;25191;47.510;19.124;2023-03-20T11:46:40;100353.22;;;22.45;36.78
38191;BME280;25191;47.510;19.124;2023-03-20T12:07:35;100341.38;;;22.39;37.64
38191;BME280;25191;47.510;19.124;2023-03-20T12:27:37;100327.66;;;22.66;42.02
38191;BME280;25191;47.510;19.124;2023-03-20T12:37:39;100329.91;;;22.71;42.31
38191;BME280;25191;47.510;19.124;2023-03-20T13:39:05;100282.34;;;22.92;45.30
38191;BME280;25191;47.510;19.124;2023-03-20T13:49:41;100273.78;;;23.00;45.02
38191;BME280;25191;47.510;19.124;2023-03-20T14:09:53;100271.13;;;23.00;45.33
38191;BME280;25191;47.510;19.124;2023-03-20T14:19:55;100268.59;;;22.98;45.31
38191;BME280;25191;47.510;19.124;2023-03-20T14:40:33;100261.13;;;22.94;45.56
38191;BME280;25191;47.510;19.124;2023-03-20T14:50:48;100257.63;;;22.93;45.35
38191;BME280;25191;47.510;19.124;2023-03-20T15:00:50;100253.22;;;23.03;45.73
38191;BME280;25191;47.510;19.124;2023-03-20T15:10:59;100246.56;;;23.09;45.24
38191;BME280;25191;47.510;19.124;2023-03-20T15:21:11;100244.75;;;23.10;45.66
38191;BME280;25191;47.510;19.124;2023-03-20T15:31:30;100250.44;;;23.05;44.45
38191;BME280;25191;47.510;19.124;2023-03-20T15:41:34;100241.66;;;22.64;35.64
38191;BME280;25191;47.510;19.124;2023-03-20T15:51:34;100245.75;;;22.47;33.04
38191;BME280;25191;47.510;19.124;2023-03-20T16:01:35;100236.66;;;22.61;32.04
38191;BME280;25191;47.510;19.124;2023-03-20T16:11:38;100237.84;;;22.78;34.03
38191;BME280;25191;47.510;19.124;2023-03-20T16:21:42;100260.63;;;22.79;37.07
38191;BME280;25191;47.510;19.124;2023-03-20T16:31:52;100257.16;;;22.78;39.29
38191;BME280;25191;47.510;19.124;2023-03-20T16:42:09;100274.47;;;22.71;40.31
38191;BME280;25191;47.510;19.124;2023-03-20T16:52:12;100271.13;;;22.69;41.47
38191;BME280;25191;47.510;19.124;2023-03-20T17:12:23;100286.91;;;22.59;41.52
38191;BME280;25191;47.510;19.124;2023-03-20T17:22:25;100286.28;;;22.25;38.13
38191;BME280;25191;47.510;19.124;2023-03-20T17:32:28;100293.38;;;22.45;40.77
38191;BME280;25191;47.510;19.124;2023-03-20T17:42:30;100295.63;;;22.50;42.25
38191;BME280;25191;47.510;19.124;2023-03-20T17:52:30;100299.94;;;22.51;43.16
38191;BME280;25191;47.510;19.124;2023-03-20T18:02:31;100305.47;;;22.48;43.26
38191;BME280;25191;47.510;19.124;2023-03-20T18:12:32;100307.97;;;22.49;44.10
38191;BME280;25191;47.510;19.124;2023-03-20T18:22:33;100314.94;;;22.50;44.61
38191;BME280;25191;47.510;19.124;2023-03-20T18:32:34;100315.06;;;22.49;45.30
38191;BME280;25191;47.510;19.124;2023-03-20T18:42:35;100316.84;;;22.48;45.68
38191;BME280;25191;47.510;19.124;2023-03-20T18:52:36;100322.13;;;22.48;46.06
38191;BME280;25191;47.510;19.124;2023-03-20T19:02:37;100322.25;;;22.47;46.20
38191;BME280;25191;47.510;19.124;2023-03-20T19:12:39;100330.91;;;22.49;46.15
38191;BME280;25191;47.510;19.124;2023-03-20T19:22:41;100323.22;;;22.46;46.82
38191;BME280;25191;47.510;19.124;2023-03-20T19:32:42;100320.59;;;22.46;46.84
38191;BME280;25191;47.510;19.124;2023-03-20T19:42:44;100333.00;;;22.55;48.33
38191;BME280;25191;47.510;19.124;2023-03-20T19:52:45;100326.13;;;22.64;50.54
38191;BME280;25191;47.510;19.124;2023-03-20T20:02:46;100326.69;;;22.67;52.25
38191;BME280;25191;47.510;19.124;2023-03-20T20:12:47;100329.63;;;22.64;52.03
38191;BME280;25191;47.510;19.124;2023-03-20T20:22:49;100326.25;;;22.62;51.56
38191;BME280;25191;47.510;19.124;2023-03-20T20:32:51;100326.50;;;22.59;50.93
38191;BME280;25191;47.510;19.124;2023-03-20T20:42:54;100314.03;;;22.61;51.35
38191;BME280;25191;47.510;19.124;2023-03-20T20:52:58;100310.66;;;22.59;51.33
38191;BME280;25191;47.510;19.124;2023-03-20T21:02:59;100310.81;;;22.58;51.32
38191;BME280;25191;47.510;19.124;2023-03-20T21:13:00;100312.16;;;22.52;51.49
38191;BME280;25191;47.510;19.124;2023-03-20T21:23:01;100303.28;;;22.53;51.17
38191;BME280;25191;47.510;19.124;2023-03-20T21:33:01;100301.72;;;22.50;51.11
38191;BME280;25191;47.510;19.124;2023-03-20T21:43:02;100313.38;;;22.48;50.99
38191;BME280;25191;47.510;19.124;2023-03-20T21:53:03;100322.41;;;22.45;50.88
38191;BME280;25191;47.510;19.124;2023-03-20T22:03:04;100328.50;;;22.46;50.35
38191;BME280;25191;47.510;19.124;2023-03-20T22:13:05;100323.63;;;22.41;50.63
38191;BME280;25191;47.510;19.124;2023-03-20T22:23:06;100319.41;;;22.38;50.26
38191;BME280;25191;47.510;19.124;2023-03-20T22:33:07;100312.81;;;22.44;50.86
38191;BME280;25191;47.510;19.124;2023-03-20T22:43:08;100313.63;;;22.45;51.09
38191;BME280;25191;47.510;19.124;2023-03-20T22:53:09;100321.53;;;22.45;50.72
38191;BME280;25191;47.510;19.124;2023-03-20T23:03:10;100321.53;;;22.45;50.78
38191;BME280;25191;47.510;19.124;2023-03-20T23:13:11;100324.19;;;22.45;50.75
38191;BME280;25191;47.510;19.124;2023-03-20T23:23:12;100333.09;;;22.44;50.58
38191;BME280;25191;47.510;19.124;2023-03-20T23:33:13;100318.34;;;22.41;50.59
38191;BME280;25191;47.510;19.124;2023-03-20T23:43:13;100326.00;;;22.44;50.68
38191;BME280;25191;47.510;19.124;2023-03-20T23:53:15;100320.13;;;22.41;50.82
